Time;durP1;ratioP1;P1;durP2;ratioP2;P2;SDS_P1;SDS_P2;PMS_P1;PMS_P2;Temp;Humidity;BMP_temperature;BMP_pressure;BME280_temperature;BME280_humidity;BME280_pressure;Samples;Min_cycle;Max_cycle;Signal;HPM_P1;HPM_P2
2023/03/25 00:00:59;;;;;;;;;0.50;0.00;;;;;9.65;62.46;100952.50;5073385;28;45470;-73
2023/03/25 00:03:26;;;;;;;;;0.00;0.00;;;;;9.58;62.33;100950.47;5065724;28;45301;-71
2023/03/25 00:05:54;;;;;;;;;3.00;2.50;;;;;9.52;63.17;100950.22;5061291;28;45424;-73
2023/03/25 00:08:21;;;;;;;;;0.75;0.00;;;;;9.34;63.22;100948.63;5057479;28;45545;-73
2023/03/25 00:10:56;;;;;;;;;0.00;0.00;;;;;9.34;63.75;100953.84;5052085;28;45442;-74
2023/03/25 00:13:22;;;;;;;;;1.75;0.00;;;;;9.35;63.88;100960.84;5037442;28;45522;-72
2023/03/25 00:15:52;;;;;;;;;0.00;0.00;;;;;9.32;63.44;100938.97;5061793;27;45750;-72
2023/03/25 00:18:21;;;;;;;;;1.00;0.50;;;;;9.41;63.64;100943.66;5062543;28;45532;-74
2023/03/25 00:20:51;;;;;;;;;1.00;0.00;;;;;9.41;63.33;100948.88;5062379;28;45190;-73
2023/03/25 00:23:19;;;;;;;;;0.00;0.00;;;;;9.42;63.65;100950.69;5038462;28;47851;-73
2023/03/25 00:25:44;;;;;;;;;1.00;0.00;;;;;9.44;63.73;100952.50;5038087;28;45447;-74
2023/03/25 00:28:12;;;;;;;;;0.00;0.00;;;;;9.47;63.30;100937.00;5068852;28;45486;-73
2023/03/25 00:30:38;;;;;;;;;0.75;0.25;;;;;9.27;63.08;100910.13;5044057;28;45914;-72
2023/03/25 00:33:03;;;;;;;;;0.00;0.00;;;;;9.52;63.61;100958.03;5038046;28;46161;-74
2023/03/25 00:35:29;;;;;;;;;0.00;0.00;;;;;9.53;63.11;100954.63;5070632;28;45312;-74
2023/03/25 00:38:01;;;;;;;;;0.00;0.00;;;;;9.64;63.28;100942.88;5058719;28;45520;-71
2023/03/25 00:40:34;;;;;;;;;1.00;0.00;;;;;9.71;62.67;100946.66;5050843;28;45582;-72
2023/03/25 00:43:01;;;;;;;;;0.00;0.00;;;;;9.72;63.15;100951.91;5065593;28;45499;-72
2023/03/25 00:45:27;;;;;;;;;0.00;0.00;;;;;9.76;63.05;100948.59;5066426;28;45391;-71
2023/03/25 00:47:53;;;;;;;;;0.00;0.00;;;;;9.76;62.69;100937.25;5070947;28;45984;-73
2023/03/25 00:50:20;;;;;;;;;1.00;0.00;;;;;9.80;63.22;100938.28;5056378;28;45289;-71
2023/03/25 00:52:46;;;;;;;;;3.00;2.00;;;;;9.81;63.40;100945.25;5069760;28;45477;-73
2023/03/25 00:55:12;;;;;;;;;0.00;0.00;;;;;9.85;63.38;100957.63;5061501;28;45416;-73
2023/03/25 00:57:37;;;;;;;;;1.00;0.00;;;;;9.93;62.98;100958.81;5065735;28;45389;-73
2023/03/25 01:00:07;;;;;;;;;0.00;0.00;;;;;9.95;63.32;100958.03;5070261;28;45391;-69
2023/03/25 01:02:33;;;;;;;;;0.75;0.75;;;;;9.91;63.28;100950.03;5064357;28;46185;-71
2023/03/25 01:04:59;;;;;;;;;0.00;0.00;;;;;9.97;63.18;100952.88;5063897;28;45290;-70
2023/03/25 01:07:28;;;;;;;;;0.00;0.00;;;;;10.05;63.87;100972.34;5061231;28;45482;-70
2023/03/25 01:09:55;;;;;;;;;0.00;0.00;;;;;10.08;63.21;100959.38;5069250;28;45393;-70
2023/03/25 01:12:21;;;;;;;;;1.00;0.00;;;;;10.16;62.72;100965.78;5064395;28;46031;-70
2023/03/25 01:14:47;;;;;;;;;0.00;0.00;;;;;10.16;62.23;100939.69;5068245;28;45439;-72
2023/03/25 01:17:12;;;;;;;;;0.00;0.00;;;;;10.27;61.98;100957.50;5049227;28;45769;-73
2023/03/25 01:19:38;;;;;;;;;1.00;0.00;;;;;10.26;62.42;100940.94;5055645;28;45584;-74
2023/03/25 01:22:04;;;;;;;;;0.25;0.00;;;;;10.38;62.86;100956.19;5069071;28;45926;-73
2023/03/25 01:24:30;;;;;;;;;0.00;0.00;;;;;10.27;62.87;100932.28;5057200;28;45455;-73
2023/03/25 01:26:56;;;;;;;;;1.00;0.00;;;;;10.30;62.95;100947.19;5055272;28;45526;-72
2023/03/25 01:29:22;;;;;;;;;0.00;0.00;;;;;10.34;62.89;100950.00;5054516;28;45659;-70
2023/03/25 01:31:48;;;;;;;;;1.00;0.00;;;;;10.43;63.01;100959.00;5055644;28;46255;-72
2023/03/25 01:34:14;;;;;;;;;0.00;0.00;;;;;10.42;62.95;100955.47;5055370;28;45499;-69
2023/03/25 01:36:45;;;;;;;;;0.50;0.25;;;;;10.44;63.70;100959.03;5054803;28;45355;-69
2023/03/25 01:39:15;;;;;;;;;0.00;0.00;;;;;10.41;63.45;100950.22;5056180;28;45916;-69
2023/03/25 01:41:41;;;;;;;;;0.50;0.00;;;;;10.36;63.88;100947.41;5058263;28;45450;-70
2023/03/25 01:44:09;;;;;;;;;0.00;0.00;;;;;10.38;64.16;100950.09;5058466;28;46279;-69
2023/03/25 01:46:38;;;;;;;;;0.00;0.00;;;;;10.39;63.67;100958.00;5058687;28;45438;-69
2023/03/25 01:49:07;;;;;;;;;0.75;0.50;;;;;10.39;63.91;100964.94;5060172;28;45391;-70
2023/03/25 01:51:40;;;;;;;;;0.00;0.00;;;;;10.27;64.04;100942.72;5063260;28;45443;-69
2023/03/25 01:54:06;;;;;;;;;1.00;1.00;;;;;10.36;63.48;100947.41;5058537;28;45234;-69
2023/03/25 01:56:40;;;;;;;;;1.00;0.00;;;;;10.38;63.89;100939.66;5055804;28;45498;-70
2023/03/25 01:59:09;;;;;;;;;3.50;3.00;;;;;10.10;64.13;100899.41;5058276;28;45502;-70
2023/03/25 02:01:36;;;;;;;;;8.00;6.25;;;;;10.37;63.87;100930.94;5058798;28;45966;-70
2023/03/25 02:04:08;;;;;;;;;1.50;1.00;;;;;10.36;63.56;100926.53;5058313;28;45494;-70
2023/03/25 02:06:49;;;;;;;;;0.00;0.00;;;;;10.37;63.97;100933.53;5055816;28;45509;-70
2023/03/25 02:09:18;;;;;;;;;1.00;0.50;;;;;10.30;63.62;100919.34;5058551;28;45388;-70
2023/03/25 02:11:43;;;;;;;;;2.00;1.00;;;;;10.30;63.31;100927.19;5046653;28;46050;-70
2023/03/25 02:14:14;;;;;;;;;2.00;2.00;;;;;10.24;63.20;100924.31;5061223;28;45406;-70
2023/03/25 02:16:48;;;;;;;;;4.00;4.00;;;;;10.15;63.45;100922.25;5075625;28;45431;-70
2023/03/25 02:19:32;;;;;;;;;3.00;2.00;;;;;10.20;63.77;100930.25;5061718;28;46508;-70
2023/03/25 02:22:36;;;;;;;;;0.00;0.00;;;;;10.19;63.63;100919.78;5058369;28;46089;-70
2023/03/25 02:25:25;;;;;;;;;3.25;2.50;;;;;10.20;63.24;100922.41;5045089;28;45727;-70
2023/03/25 02:28:11;;;;;;;;;2.75;2.75;;;;;10.13;63.55;100903.03;5065222;28;45340;-70
2023/03/25 02:31:15;;;;;;;;;0.75;0.75;;;;;10.15;63.40;100922.25;5055538;28;45434;-70
2023/03/25 02:33:59;;;;;;;;;1.00;1.00;;;;;10.15;63.32;100943.16;5056049;28;46829;-70
2023/03/25 02:37:17;;;;;;;;;1.75;1.00;;;;;9.92;62.96;100887.44;5041162;28;45475;-73
2023/03/25 02:40:21;;;;;;;;;1.50;0.00;;;;;10.26;63.05;100921.75;5032206;28;45411;-70
2023/03/25 02:43:08;;;;;;;;;0.00;0.00;;;;;10.24;62.98;100911.25;5048589;28;45419;-69
2023/03/25 02:45:39;;;;;;;;;0.50;0.50;;;;;10.20;63.02;100909.38;5056849;28;46176;-70
2023/03/25 02:48:36;;;;;;;;;4.00;2.00;;;;;10.14;63.09;100902.19;5057439;28;45501;-70
2023/03/25 02:51:09;;;;;;;;;1.00;0.75;;;;;10.01;62.89;100871.25;5038317;28;45366;-70
2023/03/25 02:53:37;;;;;;;;;1.25;1.25;;;;;10.11;63.00;100883.81;5061539;28;45534;-70
2023/03/25 02:56:08;;;;;;;;;1.75;1.75;;;;;10.10;63.37;100902.91;5069515;28;45511;-70
2023/03/25 02:58:34;;;;;;;;;1.00;0.50;;;;;10.04;63.83;100889.63;5056879;28;45597;-70
2023/03/25 03:01:00;;;;;;;;;1.00;0.00;;;;;9.95;64.40;100894.53;5039218;28;45353;-69
2023/03/25 03:03:27;;;;;;;;;0.00;0.00;;;;;9.91;64.49;100895.25;5057459;28;45562;-70
2023/03/25 03:05:58;;;;;;;;;0.00;0.00;;;;;9.93;63.99;100891.84;5057576;28;46395;-73
2023/03/25 03:08:40;;;;;;;;;0.00;0.00;;;;;9.87;64.07;100880.28;5058036;28;45410;-71
2023/03/25 03:11:14;;;;;;;;;0.00;0.00;;;;;9.92;64.02;100887.44;5058778;28;45742;-73
2023/03/25 03:14:06;;;;;;;;;0.00;0.00;;;;;9.99;63.86;100896.41;5059100;28;45312;-75
2023/03/25 03:17:08;;;;;;;;;0.00;0.00;;;;;9.95;63.56;100891.91;5014559;28;45631;-74
2023/03/25 03:19:52;;;;;;;;;1.00;1.00;;;;;9.92;63.47;100877.00;5043349;28;45361;-74
2023/03/25 03:22:38;;;;;;;;;1.00;0.00;;;;;9.87;64.09;100873.34;5039991;28;45502;-73
2023/03/25 03:25:28;;;;;;;;;0.00;0.00;;;;;9.79;64.48;100874.78;5077201;28;45494;-71
2023/03/25 03:28:10;;;;;;;;;0.00;0.00;;;;;9.72;64.66;100878.84;5078768;27;45354;-74
2023/03/25 03:31:15;;;;;;;;;1.00;0.00;;;;;9.69;64.69;100881.38;5079051;28;45235;-74
2023/03/25 03:34:05;;;;;;;;;0.00;0.00;;;;;9.51;64.73;100850.22;5007766;28;45654;-74
2023/03/25 03:36:41;;;;;;;;;0.00;0.00;;;;;9.57;64.60;100875.69;5056165;28;45488;-73
2023/03/25 03:39:18;;;;;;;;;1.00;1.00;;;;;9.59;64.72;100892.28;5075092;28;46342;-74
2023/03/25 03:41:49;;;;;;;;;0.00;0.00;;;;;9.54;65.21;100891.19;5058741;28;45351;-73
2023/03/25 03:44:20;;;;;;;;;0.00;0.00;;;;;9.48;65.87;100888.34;5058892;28;45335;-74
2023/03/25 03:46:57;;;;;;;;;2.00;0.00;;;;;9.47;65.80;100886.53;5058847;28;45367;-73
2023/03/25 03:49:29;;;;;;;;;1.00;0.00;;;;;9.43;65.68;100892.47;5038238;28;46058;-72
2023/03/25 03:52:17;;;;;;;;;0.00;0.00;;;;;9.40;65.48;100885.41;5038248;28;45229;-73
2023/03/25 03:54:58;;;;;;;;;0.00;0.00;;;;;9.32;65.45;100877.28;5038231;28;45428;-73
2023/03/25 03:57:32;;;;;;;;;3.00;0.00;;;;;9.36;65.32;100894.81;5052204;28;45501;-73
2023/03/25 04:00:16;;;;;;;;;0.75;0.75;;;;;9.34;65.41;100885.19;5058337;28;46324;-73
2023/03/25 04:02:55;;;;;;;;;0.00;0.00;;;;;9.26;65.21;100871.81;5057946;28;45485;-75
2023/03/25 04:05:29;;;;;;;;;0.25;0.25;;;;;9.29;65.50;100878.88;5064077;28;45549;-70
2023/03/25 04:08:10;;;;;;;;;0.00;0.00;;;;;9.27;65.86;100885.75;5078688;28;45524;-70
2023/03/25 04:10:45;;;;;;;;;0.00;0.00;;;;;9.26;65.66;100881.38;5078100;28;46032;-70
2023/03/25 04:13:14;;;;;;;;;0.00;0.00;;;;;9.21;65.92;100878.59;5078469;28;45476;-70
2023/03/25 04:15:42;;;;;;;;;3.50;2.50;;;;;9.12;65.77;100873.00;5063603;28;45481;-70
2023/03/25 04:18:08;;;;;;;;;0.00;0.00;;;;;9.06;66.65;100878.84;5078545;28;45390;-70
2023/03/25 04:20:35;;;;;;;;;1.00;1.00;;;;;9.04;66.70;100888.31;5078171;28;46101;-71
2023/03/25 04:23:03;;;;;;;;;3.00;1.00;;;;;9.00;67.45;100891.63;5078348;27;45299;-70
2023/03/25 04:25:31;;;;;;;;;1.00;0.50;;;;;9.00;66.59;100891.63;5059315;28;45338;-71
2023/03/25 04:27:58;;;;;;;;;0.00;0.00;;;;;8.94;66.34;100881.81;5078618;28;45531;-70
2023/03/25 04:30:26;;;;;;;;;1.00;0.00;;;;;9.02;66.35;100894.28;5078438;27;45359;-70
2023/03/25 04:32:52;;;;;;;;;1.00;0.00;;;;;8.92;66.28;100896.50;5078294;28;45501;-70
2023/03/25 04:35:19;;;;;;;;;0.00;0.00;;;;;8.96;66.09;100900.13;5058953;28;45488;-70
2023/03/25 04:37:47;;;;;;;;;0.00;0.00;;;;;8.93;66.22;100889.56;5058005;27;45449;-70
2023/03/25 04:40:17;;;;;;;;;0.25;0.00;;;;;8.90;66.81;100898.16;5037156;28;46064;-70
2023/03/25 04:42:46;;;;;;;;;0.00;0.00;;;;;8.82;67.05;100891.72;5037587;28;45334;-70
2023/03/25 04:45:15;;;;;;;;;1.00;0.00;;;;;8.87;67.11;100912.75;5052199;28;45462;-70
2023/03/25 04:47:45;;;;;;;;;0.00;0.00;;;;;8.86;66.99;100917.09;5057603;28;45356;-71
2023/03/25 04:50:22;;;;;;;;;0.00;0.00;;;;;8.88;66.63;100920.66;5057598;28;45398;-72
2023/03/25 04:52:52;;;;;;;;;0.50;0.00;;;;;8.88;67.34;100930.19;5057530;28;45502;-71
2023/03/25 04:55:19;;;;;;;;;1.00;0.00;;;;;8.85;66.75;100922.22;5057605;28;47833;-74
2023/03/25 04:57:51;;;;;;;;;1.75;1.00;;;;;8.65;67.21;100919.63;5057309;28;45604;-74
2023/03/25 05:00:21;;;;;;;;;2.00;1.00;;;;;8.63;67.44;100939.50;5057377;28;45493;-74
2023/03/25 05:02:48;;;;;;;;;2.00;1.25;;;;;8.68;67.69;100950.16;5039380;28;45380;-74
2023/03/25 05:05:19;;;;;;;;;2.00;1.00;;;;;8.68;68.02;100947.56;5057626;28;45530;-73
2023/03/25 05:07:48;;;;;;;;;3.50;2.00;;;;;8.62;67.97;100937.75;5059493;28;45572;-73
2023/03/25 05:10:16;;;;;;;;;1.25;1.00;;;;;8.67;67.78;100950.97;5076544;27;46052;-74
2023/03/25 05:12:42;;;;;;;;;3.25;1.25;;;;;8.63;67.96;100943.84;5077501;28;45524;-74
2023/03/25 05:15:10;;;;;;;;;1.00;1.00;;;;;8.60;68.31;100948.94;5076416;28;45365;-74
2023/03/25 05:17:36;;;;;;;;;1.00;0.00;;;;;8.66;67.65;100955.28;5058139;28;45429;-73
2023/03/25 05:20:05;;;;;;;;;0.75;0.75;;;;;8.58;68.12;100948.84;5076460;28;46244;-75
2023/03/25 05:22:31;;;;;;;;;2.75;1.00;;;;;8.68;67.41;100963.19;5039131;28;45447;-74
2023/03/25 05:24:57;;;;;;;;;0.00;0.00;;;;;8.68;67.30;100964.06;5063921;28;45355;-74
2023/03/25 05:27:22;;;;;;;;;1.50;1.00;;;;;8.64;67.57;100967.34;5065763;28;45624;-74
2023/03/25 05:29:48;;;;;;;;;1.75;1.25;;;;;8.65;67.46;100974.31;5038930;28;45591;-74
2023/03/25 05:32:16;;;;;;;;;1.75;1.00;;;;;8.62;67.75;100973.31;5076762;28;45500;-74
2023/03/25 05:34:45;;;;;;;;;0.00;0.00;;;;;8.63;67.83;100975.97;5077553;27;45525;-74
2023/03/25 05:37:12;;;;;;;;;0.00;0.00;;;;;8.62;68.06;100968.13;5077228;28;45410;-71
2023/03/25 05:39:37;;;;;;;;;1.00;1.00;;;;;8.61;68.06;100967.22;5062575;28;45545;-75
2023/03/25 05:42:03;;;;;;;;;0.50;0.50;;;;;8.48;68.66;100965.78;5056232;28;45452;-72
2023/03/25 05:44:29;;;;;;;;;0.00;0.00;;;;;8.51;67.73;100971.09;5061147;28;45542;-73
2023/03/25 05:46:54;;;;;;;;;0.00;0.00;;;;;8.54;67.56;100966.06;5067926;28;45534;-74
2023/03/25 05:49:20;;;;;;;;;1.50;0.00;;;;;8.54;68.10;100963.44;5069149;28;46508;-70
2023/03/25 05:51:48;;;;;;;;;0.25;0.00;;;;;8.50;68.34;100968.47;5075332;28;45359;-71
2023/03/25 05:54:14;;;;;;;;;2.25;1.00;;;;;8.43;68.47;100962.06;5038786;28;45307;-70
2023/03/25 05:56:41;;;;;;;;;1.00;1.00;;;;;8.45;68.72;100962.13;5056708;28;45576;-70
2023/03/25 05:59:07;;;;;;;;;1.50;0.00;;;;;8.49;68.42;100966.66;5056231;28;45490;-70
2023/03/25 06:01:36;;;;;;;;;1.50;0.00;;;;;8.52;68.07;100975.50;5067973;28;45405;-70
2023/03/25 06:04:02;;;;;;;;;1.00;0.75;;;;;8.49;68.09;100964.06;5076820;28;45395;-70
2023/03/25 06:06:30;;;;;;;;;1.00;0.00;;;;;8.50;67.96;100965.84;5068987;28;45466;-70
2023/03/25 06:08:57;;;;;;;;;1.00;1.00;;;;;8.61;67.92;100980.22;5064340;28;45457;-70
2023/03/25 06:11:22;;;;;;;;;1.00;0.25;;;;;8.66;67.10;100980.47;5063091;28;45608;-70
2023/03/25 06:13:48;;;;;;;;;2.50;1.00;;;;;8.69;67.22;100980.56;5059694;28;45320;-70
2023/03/25 06:16:19;;;;;;;;;2.25;1.00;;;;;8.69;67.18;100976.25;5056753;28;46221;-70
2023/03/25 06:18:50;;;;;;;;;0.50;0.50;;;;;8.74;67.72;100979.06;5037786;28;45615;-69
2023/03/25 06:21:18;;;;;;;;;3.00;1.00;;;;;8.82;67.70;100979.41;5054503;28;46354;-71
2023/03/25 06:23:45;;;;;;;;;2.00;1.00;;;;;8.87;67.32;100971.00;5054283;28;45515;-69
2023/03/25 06:26:11;;;;;;;;;1.25;1.00;;;;;8.87;66.95;100950.16;5055690;28;45507;-69
2023/03/25 06:28:36;;;;;;;;;1.00;1.00;;;;;9.02;66.91;100962.94;5057458;28;46124;-69
2023/03/25 06:31:07;;;;;;;;;2.00;1.00;;;;;9.09;67.13;100957.16;5056384;28;45555;-70
2023/03/25 06:33:33;;;;;;;;;1.75;1.00;;;;;9.07;67.17;100935.34;5055582;28;45555;-70
2023/03/25 06:35:59;;;;;;;;;2.00;1.00;;;;;9.08;66.59;100928.41;5057820;28;45518;-73
2023/03/25 06:38:25;;;;;;;;;1.00;1.00;;;;;9.26;66.18;100938.72;5055979;28;47290;-71
2023/03/25 06:40:50;;;;;;;;;2.25;1.50;;;;;9.40;66.22;100941.91;5057658;28;45787;-70
2023/03/25 06:43:16;;;;;;;;;1.75;1.00;;;;;9.53;66.14;100941.59;5057467;28;45924;-74
2023/03/25 06:45:41;;;;;;;;;1.00;1.00;;;;;9.56;65.45;100921.72;5058183;28;45378;-73
2023/03/25 06:48:07;;;;;;;;;1.00;1.00;;;;;9.72;65.01;100923.22;5058675;28;45964;-74
2023/03/25 06:50:33;;;;;;;;;1.00;1.00;;;;;9.88;65.19;100931.63;5058712;28;45380;-73
2023/03/25 06:52:59;;;;;;;;;1.00;1.00;;;;;9.97;64.90;100932.00;5057484;28;45405;-75
2023/03/25 06:55:24;;;;;;;;;1.25;1.25;;;;;10.09;64.65;100926.38;5058859;28;45528;-73
2023/03/25 06:57:54;;;;;;;;;4.25;4.00;;;;;10.21;64.13;100931.16;5058063;28;45918;-75
2023/03/25 07:00:22;;;;;;;;;1.25;1.25;;;;;10.26;63.92;100929.59;5055934;28;45338;-70
2023/03/25 07:02:48;;;;;;;;;2.00;1.50;;;;;10.29;63.46;100925.38;5058321;28;45399;-70
2023/03/25 07:05:14;;;;;;;;;1.50;1.00;;;;;10.42;63.78;100936.31;5056886;28;45526;-73
2023/03/25 07:07:40;;;;;;;;;2.00;1.00;;;;;11.78;60.31;100927.00;5037239;28;45649;-73
2023/03/25 07:10:06;;;;;;;;;1.75;1.00;;;;;14.05;55.62;100928.69;5058519;28;45608;-75
2023/03/25 07:12:33;;;;;;;;;2.00;1.50;;;;;15.96;49.64;100930.41;5058346;28;45540;-74
2023/03/25 07:14:59;;;;;;;;;1.00;0.75;;;;;17.33;46.50;100928.44;5058305;28;45455;-73
2023/03/25 07:17:25;;;;;;;;;0.00;0.00;;;;;18.46;43.28;100930.91;5057984;28;46652;-73
2023/03/25 07:19:50;;;;;;;;;1.00;0.00;;;;;19.10;43.94;100922.28;5058045;28;45429;-74
2023/03/25 07:22:16;;;;;;;;;2.33;2.00;;;;;19.96;39.78;100916.94;5058163;28;45349;-72
2023/03/25 07:24:42;;;;;;;;;0.67;0.00;;;;;19.96;39.88;100930.19;5058327;28;45485;-70
2023/03/25 07:27:11;;;;;;;;;0.67;0.00;;;;;20.42;38.98;100922.06;5057792;28;45528;-73
2023/03/25 07:29:38;;;;;;;;;0.00;0.00;;;;;20.71;40.99;100917.53;5057607;28;45442;-71
2023/03/25 07:32:04;;;;;;;;;0.00;0.00;;;;;21.92;37.62;100905.91;5057709;28;45320;-74
2023/03/25 07:34:29;;;;;;;;;0.67;0.00;;;;;22.70;34.59;100900.50;5057080;28;45442;-74
2023/03/25 07:36:55;;;;;;;;;1.00;1.00;;;;;22.99;34.78;100884.97;5059559;28;46466;-75
2023/03/25 07:39:23;;;;;;;;;1.67;1.00;;;;;23.49;33.95;100879.72;5056967;28;45323;-75
2023/03/25 07:41:50;;;;;;;;;1.00;0.00;;;;;24.34;33.11;100886.97;5039252;28;45452;-74
2023/03/25 07:44:15;;;;;;;;;1.00;0.00;;;;;24.93;32.32;100885.66;5027060;28;45526;-75
2023/03/25 07:46:43;;;;;;;;;0.00;0.00;;;;;25.30;30.79;100887.47;5064835;28;45291;-74
2023/03/25 07:49:08;;;;;;;;;2.67;0.00;;;;;25.91;30.13;100882.28;5062579;28;45473;-68
2023/03/25 07:51:34;;;;;;;;;0.00;0.00;;;;;26.67;29.75;100879.13;5057292;28;45628;-69
2023/03/25 07:54:00;;;;;;;;;0.00;0.00;;;;;27.35;28.84;100866.22;5071050;28;45751;-73
2023/03/25 07:56:25;;;;;;;;;1.00;0.33;;;;;27.98;28.02;100874.72;5056552;28;45931;-68
2023/03/25 07:58:51;;;;;;;;;0.00;0.00;;;;;28.27;27.08;100864.69;5057093;28;45502;-69
2023/03/25 08:01:17;;;;;;;;;0.00;0.00;;;;;28.49;26.97;100873.66;5058162;28;45516;-69
2023/03/25 08:03:43;;;;;;;;;2.00;2.00;;;;;28.25;26.95;100882.66;5073219;28;45461;-70
2023/03/25 08:06:08;;;;;;;;;7.67;7.00;;;;;28.51;26.01;100882.56;5066418;28;46133;-71
2023/03/25 08:08:34;;;;;;;;;2.00;2.00;;;;;28.88;27.43;100873.00;5056881;28;45447;-70
2023/03/25 08:11:00;;;;;;;;;3.00;2.00;;;;;28.01;27.10;100879.09;5056842;28;45517;-70
2023/03/25 08:13:26;;;;;;;;;1.00;1.00;;;;;27.03;27.36;100865.47;5056470;28;45586;-70
2023/03/25 08:15:54;;;;;;;;;2.67;2.00;;;;;26.93;28.67;100872.94;5057328;28;45482;-72
2023/03/25 08:18:23;;;;;;;;;3.67;3.00;;;;;26.45;28.59;100883.38;5057157;28;45367;-70
2023/03/25 08:20:52;;;;;;;;;4.33;4.00;;;;;26.87;28.21;100872.28;5053453;28;45857;-72
2023/03/25 08:23:18;;;;;;;;;3.00;2.00;;;;;26.63;28.97;100866.78;5057685;28;45327;-73
2023/03/25 08:25:49;;;;;;;;;2.00;2.00;;;;;26.24;29.94;100831.34;5065066;28;45994;-77
2023/03/25 08:28:16;;;;;;;;;12.33;10.67;;;;;25.87;30.73;100854.69;5064481;28;45569;-75
2023/03/25 08:30:43;;;;;;;;;15.33;13.00;;;;;26.56;29.77;100846.41;5073303;27;45575;-71
2023/03/25 08:33:09;;;;;;;;;8.33;7.33;;;;;26.82;29.73;100850.09;5062240;28;45530;-71
2023/03/25 08:35:36;;;;;;;;;5.00;5.00;;;;;26.66;29.75;100839.88;5068466;28;45626;-70
2023/03/25 08:38:05;;;;;;;;;4.00;3.33;;;;;26.53;30.63;100838.47;5074179;28;45527;-69
2023/03/25 08:40:35;;;;;;;;;3.00;3.00;;;;;26.06;30.34;100827.41;5068100;28;45443;-74
2023/03/25 08:43:03;;;;;;;;;5.00;5.00;;;;;26.52;30.06;100812.59;5066652;28;45216;-75
2023/03/25 08:45:31;;;;;;;;;4.00;3.00;;;;;28.16;28.65;100823.00;5071996;28;45368;-78
2023/03/25 08:47:57;;;;;;;;;2.33;2.33;;;;;28.43;28.42;100825.53;5062284;28;45464;-70
2023/03/25 08:50:23;;;;;;;;;3.33;1.00;;;;;28.52;28.30;100818.94;5056369;28;45522;-69
2023/03/25 08:52:52;;;;;;;;;0.33;0.33;;;;;29.00;27.43;100822.34;5070219;28;45577;-69
2023/03/25 08:55:18;;;;;;;;;1.00;1.00;;;;;29.69;26.94;100820.22;5063365;28;46184;-69
2023/03/25 08:57:43;;;;;;;;;2.00;1.00;;;;;29.42;26.93;100816.94;5057304;28;45540;-70
2023/03/25 09:00:13;;;;;;;;;1.33;1.00;;;;;29.08;26.79;100821.06;5057010;28;45485;-70
2023/03/25 09:02:40;;;;;;;;;3.67;2.00;;;;;29.36;25.82;100814.53;5058916;28;45415;-69
2023/03/25 09:05:08;;;;;;;;;4.00;4.00;;;;;29.33;26.51;100814.69;5054318;28;45668;-69
2023/03/25 09:07:34;;;;;;;;;3.00;3.00;;;;;30.53;26.37;100812.72;5073892;28;45351;-71
2023/03/25 09:10:00;;;;;;;;;2.33;1.00;;;;;30.46;26.12;100815.78;5067139;28;45255;-71
2023/03/25 09:12:26;;;;;;;;;0.67;0.67;;;;;30.73;25.16;100808.19;5056544;28;45885;-72
2023/03/25 09:14:51;;;;;;;;;0.33;0.00;;;;;31.08;24.51;100817.22;5057548;28;46121;-75
2023/03/25 09:17:17;;;;;;;;;0.00;0.00;;;;;31.35;25.05;100816.72;5057394;28;45485;-75
2023/03/25 09:19:43;;;;;;;;;1.00;0.00;;;;;31.84;23.74;100806.00;5057726;28;45268;-72
2023/03/25 09:22:09;;;;;;;;;1.67;0.67;;;;;32.43;23.76;100806.34;5057874;28;45423;-71
2023/03/25 09:24:34;;;;;;;;;0.00;0.00;;;;;32.78;23.17;100821.53;5038882;28;46610;-77
2023/03/25 09:27:01;;;;;;;;;0.00;0.00;;;;;32.90;21.98;100826.19;5054213;28;45409;-77
2023/03/25 09:29:27;;;;;;;;;0.33;0.00;;;;;32.75;21.12;100824.41;5062638;27;45465;-72
2023/03/25 09:31:53;;;;;;;;;0.00;0.00;;;;;32.15;21.04;100825.09;5060604;28;45508;-74
2023/03/25 09:34:18;;;;;;;;;0.33;0.00;;;;;31.63;22.86;100834.19;5054650;28;46232;-73
2023/03/25 09:36:44;;;;;;;;;0.00;0.00;;;;;32.29;21.86;100825.16;5056471;28;45425;-73
2023/03/25 09:39:10;;;;;;;;;0.00;0.00;;;;;32.46;21.34;100824.22;5055262;28;45423;-73
2023/03/25 09:41:57;;;;;;;;;1.67;0.67;;;;;32.53;22.41;100833.75;5054169;28;45482;-75
2023/03/25 09:44:34;;;;;;;;;0.67;0.67;;;;;32.42;22.04;100822.66;5055513;28;46240;-74
2023/03/25 09:47:02;;;;;;;;;1.00;0.67;;;;;32.64;21.20;100823.19;5054690;28;45703;-75
2023/03/25 09:49:52;;;;;;;;;0.00;0.00;;;;;32.60;21.84;100818.06;5057733;28;45447;-78
2023/03/25 09:52:35;;;;;;;;;0.00;0.00;;;;;32.57;22.11;100813.72;5043860;28;47065;-78
2023/03/25 09:55:11;;;;;;;;;0.00;0.00;;;;;32.52;21.59;100810.34;5055842;28;45493;-76
2023/03/25 09:57:47;;;;;;;;;0.00;0.00;;;;;32.52;22.28;100804.94;5042442;28;45403;-76
2023/03/25 10:00:19;;;;;;;;;0.33;0.00;;;;;32.18;21.59;100796.06;5054642;28;45434;-75
2023/03/25 10:03:04;;;;;;;;;0.00;0.00;;;;;31.77;21.32;100779.41;5057937;28;45828;-72
2023/03/25 10:05:42;;;;;;;;;2.67;0.67;;;;;31.71;21.91;100786.03;5054350;28;46627;-69
2023/03/25 10:08:15;;;;;;;;;0.00;0.00;;;;;31.19;21.60;100767.19;5066120;28;45836;-70
2023/03/25 10:11:05;;;;;;;;;0.00;0.00;;;;;31.01;22.26;100779.81;5067101;28;45510;-69
2023/03/25 10:13:57;;;;;;;;;1.67;0.00;;;;;31.04;22.52;100777.84;5079363;28;45464;-70
2023/03/25 10:16:52;;;;;;;;;0.33;0.00;;;;;30.73;22.87;100776.69;5068716;27;45519;-70
2023/03/25 10:19:26;;;;;;;;;0.67;0.00;;;;;30.53;23.86;100766.91;5050586;28;45580;-70
2023/03/25 10:21:57;;;;;;;;;0.00;0.00;;;;;30.77;23.17;100763.06;5067048;28;45431;-79
2023/03/25 10:24:44;;;;;;;;;0.00;0.00;;;;;30.45;22.72;100762.84;5080685;28;45478;-74
2023/03/25 10:27:22;;;;;;;;;1.00;0.00;;;;;30.10;23.82;100762.69;5061088;28;45765;-70
2023/03/25 10:30:16;;;;;;;;;1.33;0.00;;;;;29.36;24.27;100766.09;5058575;28;45391;-73
2023/03/25 10:32:57;;;;;;;;;0.00;0.00;;;;;28.58;24.89;100764.94;5060521;28;46232;-71
2023/03/25 10:35:24;;;;;;;;;1.00;1.00;;;;;28.18;25.81;100761.16;5047329;28;45549;-70
2023/03/25 10:37:58;;;;;;;;;0.00;0.00;;;;;28.27;25.87;100758.13;5067822;28;45469;-69
2023/03/25 10:40:30;;;;;;;;;1.33;1.33;;;;;28.38;26.14;100749.59;5056421;28;45382;-69
2023/03/25 10:43:10;;;;;;;;;1.00;0.00;;;;;28.53;25.69;100754.41;5059432;28;45497;-69
2023/03/25 10:45:37;;;;;;;;;0.67;0.67;;;;;28.24;25.77;100749.31;5067832;28;45462;-74
2023/03/25 10:48:11;;;;;;;;;2.00;1.00;;;;;27.80;26.84;100733.97;5062717;28;45347;-72
2023/03/25 10:50:39;;;;;;;;;2.00;2.00;;;;;27.90;26.71;100724.66;5057658;28;45449;-69
2023/03/25 10:53:05;;;;;;;;;1.67;1.00;;;;;28.19;25.88;100717.22;5057865;28;45379;-72
2023/03/25 10:55:34;;;;;;;;;0.00;0.00;;;;;28.17;26.86;100711.94;5058461;28;45551;-78
2023/03/25 10:58:00;;;;;;;;;3.33;2.00;;;;;27.94;25.93;100712.84;5058268;28;45498;-69
2023/03/25 11:00:29;;;;;;;;;1.00;1.00;;;;;27.67;26.58;100703.16;5057101;28;45529;-68
2023/03/25 11:02:55;;;;;;;;;2.00;0.00;;;;;27.06;27.24;100712.53;5057412;28;45668;-69
2023/03/25 11:05:26;;;;;;;;;2.00;0.00;;;;;26.74;28.12;100725.28;5069794;28;45463;-68
2023/03/25 11:08:00;;;;;;;;;0.67;0.67;;;;;26.33;28.98;100710.56;5057177;28;45533;-68
2023/03/25 11:10:30;;;;;;;;;1.33;1.00;;;;;25.96;29.09;100715.28;5057302;28;45412;-68
2023/03/25 11:13:02;;;;;;;;;1.00;0.33;;;;;25.58;29.77;100705.69;5054173;28;45405;-67
2023/03/25 11:15:34;;;;;;;;;1.00;1.00;;;;;25.76;30.21;100713.16;5056898;28;45329;-67
2023/03/25 11:18:10;;;;;;;;;0.67;0.67;;;;;25.80;30.06;100701.47;5055491;28;45529;-73
2023/03/25 11:21:06;;;;;;;;;1.33;0.33;;;;;26.02;29.71;100679.41;5055879;28;45450;-69
2023/03/25 11:23:41;;;;;;;;;1.00;0.00;;;;;26.46;29.02;100686.91;5048581;28;45416;-69
2023/03/25 11:26:19;;;;;;;;;3.67;3.00;;;;;26.43;29.36;100676.31;5057347;28;45502;-67
2023/03/25 11:28:48;;;;;;;;;1.33;1.33;;;;;26.78;28.89;100684.03;5056367;28;45706;-72
2023/03/25 11:31:17;;;;;;;;;2.67;2.67;;;;;27.11;28.61;100654.25;5059527;28;45591;-69
2023/03/25 11:33:45;;;;;;;;;0.67;0.67;;;;;27.06;28.37;100634.78;5061262;28;45490;-69
2023/03/25 11:36:19;;;;;;;;;1.00;1.00;;;;;26.70;28.64;100653.97;5058289;28;45456;-68
2023/03/25 11:38:49;;;;;;;;;0.33;0.00;;;;;26.47;28.76;100653.84;5054447;28;45474;-67
2023/03/25 11:41:15;;;;;;;;;0.00;0.00;;;;;26.30;28.52;100644.59;5058267;28;45496;-75
2023/03/25 11:43:48;;;;;;;;;1.00;0.33;;;;;26.22;28.75;100638.59;5056522;28;45414;-74
2023/03/25 11:46:17;;;;;;;;;1.00;1.00;;;;;25.92;29.46;100622.59;5051835;28;45548;-82